Terminal Aerodrome Forecast
Issued by NWS

Home | Current Version | Previous Version | Text Only | Print | Product List | Glossary On
Versions: 1 2 3 4 5 6 7 8 9 10 11 12 13 14 15 16 17 18 19 20
000
FTUS43 KAPX 280522
TAFAPN
TAF
KAPN 280522Z 2806/2906 00000KT P6SM FEW250
     FM281400 22004KT P6SM BKN250
     FM282000 15006KT P6SM OVC200
     FM290200 17006KT P6SM BKN080 WS020/19030KT=

USA.gov is the U.S. government's official web portal to all federal, state and local government web resources and services.